sensor_id;sensor_type;location;lat;lon;timestamp;P1;durP1;ratioP1;P2;durP2;ratioP2
20391;SDS011;10355;53.688;10.078;2023-02-20T00:02:32;3.45;;;0.93;;
20391;SDS011;10355;53.688;10.078;2023-02-20T00:05:15;4.18;;;0.80;;
20391;SDS011;10355;53.688;10.078;2023-02-20T00:07:58;3.95;;;1.10;;
20391;SDS011;10355;53.688;10.078;2023-02-20T00:10:41;3.03;;;0.82;;
20391;SDS011;10355;53.688;10.078;2023-02-20T00:13:23;0.93;;;0.60;;
20391;SDS011;10355;53.688;10.078;2023-02-20T00:16:07;3.03;;;1.00;;
20391;SDS011;10355;53.688;10.078;2023-02-20T00:18:51;3.45;;;0.82;;
20391;SDS011;10355;53.688;10.078;2023-02-20T00:21:33;5.78;;;1.10;;
20391;SDS011;10355;53.688;10.078;2023-02-20T00:24:16;2.13;;;1.00;;
20391;SDS011;10355;53.688;10.078;2023-02-20T00:26:59;3.10;;;1.00;;
20391;SDS011;10355;53.688;10.078;2023-02-20T00:29:42;3.35;;;0.93;;
20391;SDS011;10355;53.688;10.078;2023-02-20T00:32:27;3.00;;;1.02;;
20391;SDS011;10355;53.688;10.078;2023-02-20T00:35:09;2.05;;;0.90;;
20391;SDS011;10355;53.688;10.078;2023-02-20T00:37:53;5.10;;;1.10;;
20391;SDS011;10355;53.688;10.078;2023-02-20T00:40:36;4.57;;;1.08;;
20391;SDS011;10355;53.688;10.078;2023-02-20T00:43:18;2.53;;;1.10;;
20391;SDS011;10355;53.688;10.078;2023-02-20T00:46:01;3.90;;;1.13;;
20391;SDS011;10355;53.688;10.078;2023-02-20T00:48:45;2.38;;;1.00;;
20391;SDS011;10355;53.688;10.078;2023-02-20T00:51:46;2.10;;;1.10;;
20391;SDS011;10355;53.688;10.078;2023-02-20T00:54:28;2.70;;;1.00;;
20391;SDS011;10355;53.688;10.078;2023-02-20T00:57:11;2.35;;;1.00;;
20391;SDS011;10355;53.688;10.078;2023-02-20T00:59:54;1.77;;;1.08;;
20391;SDS011;10355;53.688;10.078;2023-02-20T01:02:37;1.98;;;1.10;;
20391;SDS011;10355;53.688;10.078;2023-02-20T01:05:21;3.35;;;1.20;;
20391;SDS011;10355;53.688;10.078;2023-02-20T01:08:04;3.60;;;0.98;;
20391;SDS011;10355;53.688;10.078;2023-02-20T01:10:46;5.03;;;1.42;;
20391;SDS011;10355;53.688;10.078;2023-02-20T01:13:29;2.42;;;1.00;;
20391;SDS011;10355;53.688;10.078;2023-02-20T01:16:11;1.88;;;0.93;;
20391;SDS011;10355;53.688;10.078;2023-02-20T01:18:56;2.70;;;1.35;;
20391;SDS011;10355;53.688;10.078;2023-02-20T01:21:40;5.13;;;1.13;;
20391;SDS011;10355;53.688;10.078;2023-02-20T01:24:24;4.35;;;1.17;;
20391;SDS011;10355;53.688;10.078;2023-02-20T01:27:07;1.98;;;1.10;;
20391;SDS011;10355;53.688;10.078;2023-02-20T01:29:50;3.05;;;1.08;;
20391;SDS011;10355;53.688;10.078;2023-02-20T01:32:33;3.90;;;0.82;;
20391;SDS011;10355;53.688;10.078;2023-02-20T01:35:16;4.90;;;1.20;;
20391;SDS011;10355;53.688;10.078;2023-02-20T01:38:00;3.42;;;1.13;;
20391;SDS011;10355;53.688;10.078;2023-02-20T01:40:47;3.35;;;1.17;;
20391;SDS011;10355;53.688;10.078;2023-02-20T01:43:31;2.55;;;1.30;;
20391;SDS011;10355;53.688;10.078;2023-02-20T01:49:16;3.20;;;1.20;;
20391;SDS011;10355;53.688;10.078;2023-02-20T01:52:02;3.83;;;1.30;;
20391;SDS011;10355;53.688;10.078;2023-02-20T01:54:50;3.97;;;1.10;;
20391;SDS011;10355;53.688;10.078;2023-02-20T01:57:34;4.30;;;1.20;;
20391;SDS011;10355;53.688;10.078;2023-02-20T02:00:19;3.00;;;1.20;;
20391;SDS011;10355;53.688;10.078;2023-02-20T02:03:04;2.30;;;1.27;;
20391;SDS011;10355;53.688;10.078;2023-02-20T02:05:47;4.70;;;1.50;;
20391;SDS011;10355;53.688;10.078;2023-02-20T02:08:30;3.38;;;1.40;;
20391;SDS011;10355;53.688;10.078;2023-02-20T02:11:17;3.80;;;1.20;;
20391;SDS011;10355;53.688;10.078;2023-02-20T02:14:00;3.25;;;1.17;;
20391;SDS011;10355;53.688;10.078;2023-02-20T02:16:44;1.80;;;1.30;;
20391;SDS011;10355;53.688;10.078;2023-02-20T02:22:35;2.08;;;1.23;;
20391;SDS011;10355;53.688;10.078;2023-02-20T02:25:26;4.00;;;1.50;;
20391;SDS011;10355;53.688;10.078;2023-02-20T02:28:25;2.47;;;1.30;;
20391;SDS011;10355;53.688;10.078;2023-02-20T02:37:18;2.35;;;1.27;;
20391;SDS011;10355;53.688;10.078;2023-02-20T02:40:05;3.55;;;1.33;;
20391;SDS011;10355;53.688;10.078;2023-02-20T02:42:50;3.30;;;1.60;;
20391;SDS011;10355;53.688;10.078;2023-02-20T02:45:34;2.30;;;1.40;;
20391;SDS011;10355;53.688;10.078;2023-02-20T02:48:19;3.35;;;1.80;;
20391;SDS011;10355;53.688;10.078;2023-02-20T02:51:07;3.15;;;1.70;;
20391;SDS011;10355;53.688;10.078;2023-02-20T02:56:53;2.97;;;1.60;;
20391;SDS011;10355;53.688;10.078;2023-02-20T02:59:58;4.32;;;1.50;;
20391;SDS011;10355;53.688;10.078;2023-02-20T03:02:43;5.93;;;1.90;;
20391;SDS011;10355;53.688;10.078;2023-02-20T03:05:28;3.63;;;1.77;;
20391;SDS011;10355;53.688;10.078;2023-02-20T03:08:22;4.05;;;1.98;;
20391;SDS011;10355;53.688;10.078;2023-02-20T03:11:12;4.35;;;2.00;;
20391;SDS011;10355;53.688;10.078;2023-02-20T03:13:58;3.55;;;1.90;;
20391;SDS011;10355;53.688;10.078;2023-02-20T03:17:07;4.32;;;2.45;;
20391;SDS011;10355;53.688;10.078;2023-02-20T03:19:52;2.53;;;1.83;;
20391;SDS011;10355;53.688;10.078;2023-02-20T03:22:37;3.22;;;2.00;;
20391;SDS011;10355;53.688;10.078;2023-02-20T03:25:29;4.30;;;2.28;;
20391;SDS011;10355;53.688;10.078;2023-02-20T03:28:14;3.05;;;2.10;;
20391;SDS011;10355;53.688;10.078;2023-02-20T03:30:58;3.13;;;2.08;;
20391;SDS011;10355;53.688;10.078;2023-02-20T03:33:46;4.88;;;2.25;;
20391;SDS011;10355;53.688;10.078;2023-02-20T03:36:49;4.18;;;2.30;;
20391;SDS011;10355;53.688;10.078;2023-02-20T03:39:51;2.78;;;2.08;;
20391;SDS011;10355;53.688;10.078;2023-02-20T03:42:54;4.22;;;2.55;;
20391;SDS011;10355;53.688;10.078;2023-02-20T03:45:56;3.85;;;2.15;;
20391;SDS011;10355;53.688;10.078;2023-02-20T03:48:44;3.75;;;2.30;;
20391;SDS011;10355;53.688;10.078;2023-02-20T03:51:29;2.78;;;2.08;;
20391;SDS011;10355;53.688;10.078;2023-02-20T03:54:17;3.20;;;1.85;;
20391;SDS011;10355;53.688;10.078;2023-02-20T03:57:02;4.25;;;2.25;;
20391;SDS011;10355;53.688;10.078;2023-02-20T03:59:47;3.88;;;2.42;;
20391;SDS011;10355;53.688;10.078;2023-02-20T04:02:31;3.70;;;2.30;;
20391;SDS011;10355;53.688;10.078;2023-02-20T04:05:17;3.78;;;2.40;;
20391;SDS011;10355;53.688;10.078;2023-02-20T04:08:03;5.60;;;2.38;;
20391;SDS011;10355;53.688;10.078;2023-02-20T04:10:49;3.88;;;2.33;;
20391;SDS011;10355;53.688;10.078;2023-02-20T04:13:35;3.25;;;2.00;;
20391;SDS011;10355;53.688;10.078;2023-02-20T04:16:18;4.47;;;2.53;;
20391;SDS011;10355;53.688;10.078;2023-02-20T04:19:01;3.50;;;2.50;;
20391;SDS011;10355;53.688;10.078;2023-02-20T04:21:45;6.50;;;2.50;;
20391;SDS011;10355;53.688;10.078;2023-02-20T04:24:32;3.28;;;2.33;;
20391;SDS011;10355;53.688;10.078;2023-02-20T04:27:16;3.67;;;2.40;;
20391;SDS011;10355;53.688;10.078;2023-02-20T04:30:04;5.30;;;2.30;;
20391;SDS011;10355;53.688;10.078;2023-02-20T04:32:48;6.10;;;2.78;;
20391;SDS011;10355;53.688;10.078;2023-02-20T04:35:30;6.20;;;2.78;;
20391;SDS011;10355;53.688;10.078;2023-02-20T04:38:13;4.68;;;2.15;;
20391;SDS011;10355;53.688;10.078;2023-02-20T04:40:57;4.68;;;2.80;;
20391;SDS011;10355;53.688;10.078;2023-02-20T04:43:40;4.15;;;2.60;;
20391;SDS011;10355;53.688;10.078;2023-02-20T04:46:23;5.30;;;2.80;;
20391;SDS011;10355;53.688;10.078;2023-02-20T04:49:06;4.28;;;2.58;;
20391;SDS011;10355;53.688;10.078;2023-02-20T04:51:49;4.50;;;2.72;;
20391;SDS011;10355;53.688;10.078;2023-02-20T04:54:31;5.70;;;3.10;;
20391;SDS011;10355;53.688;10.078;2023-02-20T04:57:17;5.05;;;3.10;;
20391;SDS011;10355;53.688;10.078;2023-02-20T05:00:00;4.05;;;2.47;;
20391;SDS011;10355;53.688;10.078;2023-02-20T05:02:43;5.28;;;2.90;;
20391;SDS011;10355;53.688;10.078;2023-02-20T05:05:26;5.07;;;3.05;;
20391;SDS011;10355;53.688;10.078;2023-02-20T05:08:09;8.35;;;3.30;;
20391;SDS011;10355;53.688;10.078;2023-02-20T05:10:52;7.00;;;3.20;;
20391;SDS011;10355;53.688;10.078;2023-02-20T05:13:35;7.28;;;3.05;;
20391;SDS011;10355;53.688;10.078;2023-02-20T05:16:18;6.40;;;3.33;;
20391;SDS011;10355;53.688;10.078;2023-02-20T05:19:01;5.85;;;3.53;;
20391;SDS011;10355;53.688;10.078;2023-02-20T05:21:44;6.15;;;3.15;;
20391;SDS011;10355;53.688;10.078;2023-02-20T05:24:45;6.55;;;3.83;;
20391;SDS011;10355;53.688;10.078;2023-02-20T05:27:28;7.10;;;3.80;;
20391;SDS011;10355;53.688;10.078;2023-02-20T05:30:12;4.75;;;3.38;;
20391;SDS011;10355;53.688;10.078;2023-02-20T05:32:54;4.93;;;3.40;;
20391;SDS011;10355;53.688;10.078;2023-02-20T05:35:37;6.25;;;3.97;;
20391;SDS011;10355;53.688;10.078;2023-02-20T05:38:21;6.57;;;3.63;;
20391;SDS011;10355;53.688;10.078;2023-02-20T05:41:03;9.13;;;4.65;;
20391;SDS011;10355;53.688;10.078;2023-02-20T05:43:46;7.85;;;4.38;;
20391;SDS011;10355;53.688;10.078;2023-02-20T05:46:31;7.35;;;4.20;;
20391;SDS011;10355;53.688;10.078;2023-02-20T05:49:15;8.75;;;4.32;;
20391;SDS011;10355;53.688;10.078;2023-02-20T05:51:58;7.03;;;4.10;;
20391;SDS011;10355;53.688;10.078;2023-02-20T05:54:40;8.30;;;4.45;;
20391;SDS011;10355;53.688;10.078;2023-02-20T05:57:23;8.30;;;4.05;;
20391;SDS011;10355;53.688;10.078;2023-02-20T06:00:06;7.47;;;4.57;;
20391;SDS011;10355;53.688;10.078;2023-02-20T06:02:53;9.23;;;4.40;;
20391;SDS011;10355;53.688;10.078;2023-02-20T06:05:36;8.45;;;4.88;;
20391;SDS011;10355;53.688;10.078;2023-02-20T06:08:19;8.10;;;4.30;;
20391;SDS011;10355;53.688;10.078;2023-02-20T06:11:01;7.82;;;4.53;;
20391;SDS011;10355;53.688;10.078;2023-02-20T06:13:44;8.85;;;4.63;;
20391;SDS011;10355;53.688;10.078;2023-02-20T06:16:28;10.13;;;5.00;;
20391;SDS011;10355;53.688;10.078;2023-02-20T06:19:13;7.65;;;4.63;;
20391;SDS011;10355;53.688;10.078;2023-02-20T06:21:59;8.93;;;4.80;;
20391;SDS011;10355;53.688;10.078;2023-02-20T06:24:43;7.90;;;4.35;;
20391;SDS011;10355;53.688;10.078;2023-02-20T06:27:26;10.20;;;4.68;;
20391;SDS011;10355;53.688;10.078;2023-02-20T06:30:09;11.73;;;4.90;;
20391;SDS011;10355;53.688;10.078;2023-02-20T06:32:52;9.00;;;4.65;;
20391;SDS011;10355;53.688;10.078;2023-02-20T06:35:36;8.82;;;5.13;;
20391;SDS011;10355;53.688;10.078;2023-02-20T06:38:18;8.88;;;4.65;;
20391;SDS011;10355;53.688;10.078;2023-02-20T06:41:01;8.73;;;4.70;;
20391;SDS011;10355;53.688;10.078;2023-02-20T06:43:44;10.30;;;4.68;;
20391;SDS011;10355;53.688;10.078;2023-02-20T06:46:26;10.05;;;4.82;;
20391;SDS011;10355;53.688;10.078;2023-02-20T06:49:09;8.93;;;4.53;;
20391;SDS011;10355;53.688;10.078;2023-02-20T06:51:53;8.48;;;4.85;;
20391;SDS011;10355;53.688;10.078;2023-02-20T06:54:36;10.27;;;4.65;;
20391;SDS011;10355;53.688;10.078;2023-02-20T06:57:18;10.98;;;4.97;;
20391;SDS011;10355;53.688;10.078;2023-02-20T07:00:01;11.52;;;4.70;;
20391;SDS011;10355;53.688;10.078;2023-02-20T07:02:44;10.43;;;5.20;;
20391;SDS011;10355;53.688;10.078;2023-02-20T07:05:27;13.95;;;5.28;;
20391;SDS011;10355;53.688;10.078;2023-02-20T07:08:11;11.13;;;5.07;;
20391;SDS011;10355;53.688;10.078;2023-02-20T07:10:54;11.48;;;5.45;;
20391;SDS011;10355;53.688;10.078;2023-02-20T07:13:36;8.95;;;5.20;;
20391;SDS011;10355;53.688;10.078;2023-02-20T07:16:19;8.90;;;4.85;;
20391;SDS011;10355;53.688;10.078;2023-02-20T07:19:02;11.40;;;5.20;;
20391;SDS011;10355;53.688;10.078;2023-02-20T07:21:45;12.00;;;5.15;;
20391;SDS011;10355;53.688;10.078;2023-02-20T07:24:29;11.23;;;5.43;;
20391;SDS011;10355;53.688;10.078;2023-02-20T07:27:11;8.82;;;5.13;;
20391;SDS011;10355;53.688;10.078;2023-02-20T07:29:54;10.52;;;5.22;;
20391;SDS011;10355;53.688;10.078;2023-02-20T07:32:36;10.02;;;5.43;;
20391;SDS011;10355;53.688;10.078;2023-02-20T07:35:19;10.20;;;4.70;;
20391;SDS011;10355;53.688;10.078;2023-02-20T07:38:02;13.52;;;5.53;;
20391;SDS011;10355;53.688;10.078;2023-02-20T07:40:46;9.57;;;5.50;;
20391;SDS011;10355;53.688;10.078;2023-02-20T07:43:29;11.60;;;5.85;;
20391;SDS011;10355;53.688;10.078;2023-02-20T07:46:11;10.38;;;5.25;;
20391;SDS011;10355;53.688;10.078;2023-02-20T07:48:55;10.15;;;5.28;;
20391;SDS011;10355;53.688;10.078;2023-02-20T07:51:37;9.63;;;5.43;;
20391;SDS011;10355;53.688;10.078;2023-02-20T07:54:20;8.35;;;4.82;;
20391;SDS011;10355;53.688;10.078;2023-02-20T07:57:04;11.73;;;5.55;;
20391;SDS011;10355;53.688;10.078;2023-02-20T07:59:47;15.10;;;5.80;;
20391;SDS011;10355;53.688;10.078;2023-02-20T08:02:29;12.02;;;5.72;;
20391;SDS011;10355;53.688;10.078;2023-02-20T08:05:12;11.27;;;6.18;;
20391;SDS011;10355;53.688;10.078;2023-02-20T08:07:55;10.88;;;6.03;;
20391;SDS011;10355;53.688;10.078;2023-02-20T08:10:38;10.40;;;5.60;;
20391;SDS011;10355;53.688;10.078;2023-02-20T08:13:22;10.35;;;5.53;;
20391;SDS011;10355;53.688;10.078;2023-02-20T08:16:05;11.48;;;5.80;;
20391;SDS011;10355;53.688;10.078;2023-02-20T08:18:47;12.88;;;5.78;;
20391;SDS011;10355;53.688;10.078;2023-02-20T08:21:30;13.93;;;6.18;;
20391;SDS011;10355;53.688;10.078;2023-02-20T08:24:13;10.68;;;5.75;;
20391;SDS011;10355;53.688;10.078;2023-02-20T08:26:56;13.60;;;5.63;;
20391;SDS011;10355;53.688;10.078;2023-02-20T08:29:41;12.52;;;6.05;;
20391;SDS011;10355;53.688;10.078;2023-02-20T08:32:23;10.23;;;5.93;;
20391;SDS011;10355;53.688;10.078;2023-02-20T08:35:06;11.30;;;6.13;;
20391;SDS011;10355;53.688;10.078;2023-02-20T08:37:49;12.23;;;5.93;;
20391;SDS011;10355;53.688;10.078;2023-02-20T08:40:32;12.98;;;6.18;;
20391;SDS011;10355;53.688;10.078;2023-02-20T08:43:15;10.80;;;6.25;;
20391;SDS011;10355;53.688;10.078;2023-02-20T08:45:59;11.88;;;6.18;;
20391;SDS011;10355;53.688;10.078;2023-02-20T08:48:42;13.65;;;5.95;;
20391;SDS011;10355;53.688;10.078;2023-02-20T08:51:25;15.32;;;6.15;;
20391;SDS011;10355;53.688;10.078;2023-02-20T08:54:08;12.70;;;6.00;;
20391;SDS011;10355;53.688;10.078;2023-02-20T08:56:50;14.43;;;6.10;;
20391;SDS011;10355;53.688;10.078;2023-02-20T08:59:33;12.30;;;6.03;;
20391;SDS011;10355;53.688;10.078;2023-02-20T09:02:19;13.70;;;6.20;;
20391;SDS011;10355;53.688;10.078;2023-02-20T09:05:02;12.95;;;6.20;;
20391;SDS011;10355;53.688;10.078;2023-02-20T09:07:45;12.75;;;5.68;;
20391;SDS011;10355;53.688;10.078;2023-02-20T09:10:28;13.50;;;5.97;;
20391;SDS011;10355;53.688;10.078;2023-02-20T09:13:11;13.25;;;6.10;;
20391;SDS011;10355;53.688;10.078;2023-02-20T09:15:54;12.07;;;5.93;;
20391;SDS011;10355;53.688;10.078;2023-02-20T09:18:38;13.77;;;5.85;;
20391;SDS011;10355;53.688;10.078;2023-02-20T09:21:21;12.10;;;5.43;;
20391;SDS011;10355;53.688;10.078;2023-02-20T09:24:04;12.65;;;5.97;;
20391;SDS011;10355;53.688;10.078;2023-02-20T09:26:46;10.60;;;5.78;;
20391;SDS011;10355;53.688;10.078;2023-02-20T09:29:29;10.85;;;5.43;;
20391;SDS011;10355;53.688;10.078;2023-02-20T09:32:12;14.23;;;5.50;;
20391;SDS011;10355;53.688;10.078;2023-02-20T09:34:56;11.15;;;5.07;;
20391;SDS011;10355;53.688;10.078;2023-02-20T09:37:39;16.08;;;5.40;;
20391;SDS011;10355;53.688;10.078;2023-02-20T09:40:22;9.18;;;4.90;;
20391;SDS011;10355;53.688;10.078;2023-02-20T09:43:13;12.80;;;5.20;;
20391;SDS011;10355;53.688;10.078;2023-02-20T09:46:01;10.23;;;5.07;;
20391;SDS011;10355;53.688;10.078;2023-02-20T09:48:52;11.13;;;5.20;;
20391;SDS011;10355;53.688;10.078;2023-02-20T09:51:38;10.50;;;5.00;;
20391;SDS011;10355;53.688;10.078;2023-02-20T09:54:23;10.35;;;5.00;;
20391;SDS011;10355;53.688;10.078;2023-02-20T09:57:09;10.55;;;5.25;;
20391;SDS011;10355;53.688;10.078;2023-02-20T09:59:54;13.23;;;5.18;;
20391;SDS011;10355;53.688;10.078;2023-02-20T10:02:51;10.60;;;5.10;;
20391;SDS011;10355;53.688;10.078;2023-02-20T10:05:35;9.68;;;5.00;;
20391;SDS011;10355;53.688;10.078;2023-02-20T10:08:20;12.82;;;5.30;;
20391;SDS011;10355;53.688;10.078;2023-02-20T10:11:03;9.82;;;4.75;;
20391;SDS011;10355;53.688;10.078;2023-02-20T10:13:51;8.18;;;4.30;;
20391;SDS011;10355;53.688;10.078;2023-02-20T10:16:37;11.30;;;4.75;;
20391;SDS011;10355;53.688;10.078;2023-02-20T10:19:23;9.57;;;4.68;;
20391;SDS011;10355;53.688;10.078;2023-02-20T10:22:10;9.70;;;4.22;;
20391;SDS011;10355;53.688;10.078;2023-02-20T10:24:59;8.73;;;4.35;;
20391;SDS011;10355;53.688;10.078;2023-02-20T10:27:47;10.27;;;4.18;;
20391;SDS011;10355;53.688;10.078;2023-02-20T10:30:32;10.07;;;4.00;;
20391;SDS011;10355;53.688;10.078;2023-02-20T10:33:19;8.57;;;3.70;;
20391;SDS011;10355;53.688;10.078;2023-02-20T10:36:06;8.68;;;4.03;;
20391;SDS011;10355;53.688;10.078;2023-02-20T10:38:51;8.32;;;3.97;;
20391;SDS011;10355;53.688;10.078;2023-02-20T10:41:39;8.23;;;3.60;;
20391;SDS011;10355;53.688;10.078;2023-02-20T10:44:24;9.15;;;3.70;;
20391;SDS011;10355;53.688;10.078;2023-02-20T10:47:09;8.70;;;3.63;;
20391;SDS011;10355;53.688;10.078;2023-02-20T10:49:55;10.02;;;2.90;;
20391;SDS011;10355;53.688;10.078;2023-02-20T10:52:40;7.72;;;2.90;;
20391;SDS011;10355;53.688;10.078;2023-02-20T10:55:24;9.55;;;3.10;;
20391;SDS011;10355;53.688;10.078;2023-02-20T10:58:09;6.50;;;2.95;;
20391;SDS011;10355;53.688;10.078;2023-02-20T11:00:54;6.72;;;2.70;;
20391;SDS011;10355;53.688;10.078;2023-02-20T11:03:39;6.88;;;2.65;;
20391;SDS011;10355;53.688;10.078;2023-02-20T11:06:24;7.75;;;2.85;;
20391;SDS011;10355;53.688;10.078;2023-02-20T11:09:07;8.73;;;2.53;;
20391;SDS011;10355;53.688;10.078;2023-02-20T11:11:51;6.57;;;2.42;;
20391;SDS011;10355;53.688;10.078;2023-02-20T11:14:39;6.85;;;2.50;;
20391;SDS011;10355;53.688;10.078;2023-02-20T11:17:23;6.32;;;2.72;;
20391;SDS011;10355;53.688;10.078;2023-02-20T11:23:05;10.15;;;2.40;;
20391;SDS011;10355;53.688;10.078;2023-02-20T11:25:48;4.63;;;2.28;;
20391;SDS011;10355;53.688;10.078;2023-02-20T11:28:31;6.35;;;2.30;;
20391;SDS011;10355;53.688;10.078;2023-02-20T11:31:15;3.95;;;2.03;;
20391;SDS011;10355;53.688;10.078;2023-02-20T11:33:57;4.63;;;2.30;;
20391;SDS011;10355;53.688;10.078;2023-02-20T11:36:44;5.43;;;1.92;;
20391;SDS011;10355;53.688;10.078;2023-02-20T11:39:27;7.00;;;2.13;;
20391;SDS011;10355;53.688;10.078;2023-02-20T11:42:11;6.15;;;2.22;;
20391;SDS011;10355;53.688;10.078;2023-02-20T11:45:06;4.82;;;2.00;;
20391;SDS011;10355;53.688;10.078;2023-02-20T11:48:06;8.63;;;1.95;;
20391;SDS011;10355;53.688;10.078;2023-02-20T11:50:49;5.28;;;2.30;;
20391;SDS011;10355;53.688;10.078;2023-02-20T11:53:32;5.78;;;2.17;;
20391;SDS011;10355;53.688;10.078;2023-02-20T11:56:16;4.50;;;1.88;;
20391;SDS011;10355;53.688;10.078;2023-02-20T11:59:12;6.32;;;2.40;;
20391;SDS011;10355;53.688;10.078;2023-02-20T12:01:59;7.82;;;1.88;;
20391;SDS011;10355;53.688;10.078;2023-02-20T12:05:06;4.93;;;1.88;;
20391;SDS011;10355;53.688;10.078;2023-02-20T12:07:53;4.18;;;1.80;;
20391;SDS011;10355;53.688;10.078;2023-02-20T12:10:37;5.75;;;1.80;;
20391;SDS011;10355;53.688;10.078;2023-02-20T12:13:21;9.20;;;2.00;;
20391;SDS011;10355;53.688;10.078;2023-02-20T12:16:06;3.53;;;1.73;;
20391;SDS011;10355;53.688;10.078;2023-02-20T12:18:56;4.20;;;1.70;;
20391;SDS011;10355;53.688;10.078;2023-02-20T12:21:45;5.18;;;1.52;;
20391;SDS011;10355;53.688;10.078;2023-02-20T12:24:41;6.60;;;1.90;;
20391;SDS011;10355;53.688;10.078;2023-02-20T12:27:29;4.68;;;1.70;;
20391;SDS011;10355;53.688;10.078;2023-02-20T12:30:22;6.35;;;1.50;;
20391;SDS011;10355;53.688;10.078;2023-02-20T12:33:12;3.17;;;1.70;;
20391;SDS011;10355;53.688;10.078;2023-02-20T12:36:01;6.97;;;1.73;;
20391;SDS011;10355;53.688;10.078;2023-02-20T12:38:52;5.28;;;1.40;;
20391;SDS011;10355;53.688;10.078;2023-02-20T12:41:41;4.03;;;1.40;;
20391;SDS011;10355;53.688;10.078;2023-02-20T12:44:40;4.45;;;1.55;;
20391;SDS011;10355;53.688;10.078;2023-02-20T12:47:28;4.65;;;1.45;;
20391;SDS011;10355;53.688;10.078;2023-02-20T12:50:18;6.75;;;1.30;;
20391;SDS011;10355;53.688;10.078;2023-02-20T12:53:06;6.35;;;1.60;;
20391;SDS011;10355;53.688;10.078;2023-02-20T12:55:56;3.50;;;1.63;;
20391;SDS011;10355;53.688;10.078;2023-02-20T12:58:46;6.80;;;1.55;;
20391;SDS011;10355;53.688;10.078;2023-02-20T13:01:29;3.92;;;1.45;;
20391;SDS011;10355;53.688;10.078;2023-02-20T13:04:22;5.57;;;1.63;;
20391;SDS011;10355;53.688;10.078;2023-02-20T13:07:06;3.50;;;1.60;;
20391;SDS011;10355;53.688;10.078;2023-02-20T13:09:55;5.53;;;1.60;;
20391;SDS011;10355;53.688;10.078;2023-02-20T13:12:40;5.05;;;1.58;;
20391;SDS011;10355;53.688;10.078;2023-02-20T13:15:29;4.20;;;1.30;;
20391;SDS011;10355;53.688;10.078;2023-02-20T13:18:16;2.38;;;1.58;;
20391;SDS011;10355;53.688;10.078;2023-02-20T13:21:02;5.10;;;1.40;;
20391;SDS011;10355;53.688;10.078;2023-02-20T13:23:46;4.43;;;1.50;;
20391;SDS011;10355;53.688;10.078;2023-02-20T13:26:45;5.57;;;1.50;;
20391;SDS011;10355;53.688;10.078;2023-02-20T13:29:29;3.75;;;1.40;;
20391;SDS011;10355;53.688;10.078;2023-02-20T13:32:23;4.57;;;1.73;;
20391;SDS011;10355;53.688;10.078;2023-02-20T13:38:10;5.40;;;1.83;;
20391;SDS011;10355;53.688;10.078;2023-02-20T13:41:03;3.47;;;1.15;;
20391;SDS011;10355;53.688;10.078;2023-02-20T13:43:46;5.65;;;1.40;;
20391;SDS011;10355;53.688;10.078;2023-02-20T13:46:30;4.45;;;1.50;;
20391;SDS011;10355;53.688;10.078;2023-02-20T13:52:39;4.50;;;1.70;;
20391;SDS011;10355;53.688;10.078;2023-02-20T13:55:23;4.28;;;1.58;;
20391;SDS011;10355;53.688;10.078;2023-02-20T13:58:10;3.88;;;1.23;;
20391;SDS011;10355;53.688;10.078;2023-02-20T14:00:53;5.72;;;1.40;;
20391;SDS011;10355;53.688;10.078;2023-02-20T14:03:38;6.82;;;1.80;;
20391;SDS011;10355;53.688;10.078;2023-02-20T14:06:20;4.47;;;1.50;;
20391;SDS011;10355;53.688;10.078;2023-02-20T14:09:07;9.25;;;1.70;;
20391;SDS011;10355;53.688;10.078;2023-02-20T14:11:51;4.90;;;1.50;;
20391;SDS011;10355;53.688;10.078;2023-02-20T14:14:35;7.97;;;1.80;;
20391;SDS011;10355;53.688;10.078;2023-02-20T14:17:19;3.40;;;1.33;;
20391;SDS011;10355;53.688;10.078;2023-02-20T14:20:05;4.35;;;1.42;;
20391;SDS011;10355;53.688;10.078;2023-02-20T14:23:05;4.97;;;1.88;;
20391;SDS011;10355;53.688;10.078;2023-02-20T14:25:51;4.65;;;1.10;;
20391;SDS011;10355;53.688;10.078;2023-02-20T14:28:43;4.97;;;1.38;;
20391;SDS011;10355;53.688;10.078;2023-02-20T14:31:27;5.40;;;1.83;;
20391;SDS011;10355;53.688;10.078;2023-02-20T14:34:12;5.75;;;1.80;;
20391;SDS011;10355;53.688;10.078;2023-02-20T14:37:00;6.13;;;1.50;;
20391;SDS011;10355;53.688;10.078;2023-02-20T14:39:46;5.80;;;1.67;;
20391;SDS011;10355;53.688;10.078;2023-02-20T14:42:31;4.80;;;1.67;;
20391;SDS011;10355;53.688;10.078;2023-02-20T14:45:15;6.22;;;1.85;;
20391;SDS011;10355;53.688;10.078;2023-02-20T14:47:59;6.63;;;1.73;;
20391;SDS011;10355;53.688;10.078;2023-02-20T14:50:41;5.38;;;1.50;;
20391;SDS011;10355;53.688;10.078;2023-02-20T14:53:25;5.82;;;1.55;;
20391;SDS011;10355;53.688;10.078;2023-02-20T14:56:09;5.90;;;1.52;;
20391;SDS011;10355;53.688;10.078;2023-02-20T14:58:52;3.78;;;1.33;;
20391;SDS011;10355;53.688;10.078;2023-02-20T15:01:35;3.83;;;1.73;;
20391;SDS011;10355;53.688;10.078;2023-02-20T15:04:20;5.38;;;1.70;;
20391;SDS011;10355;53.688;10.078;2023-02-20T15:07:04;10.95;;;1.90;;
20391;SDS011;10355;53.688;10.078;2023-02-20T15:09:49;4.72;;;1.60;;
20391;SDS011;10355;53.688;10.078;2023-02-20T15:12:33;6.28;;;2.08;;
20391;SDS011;10355;53.688;10.078;2023-02-20T15:15:16;8.82;;;1.33;;
20391;SDS011;10355;53.688;10.078;2023-02-20T15:18:06;10.20;;;1.80;;
20391;SDS011;10355;53.688;10.078;2023-02-20T15:20:49;5.25;;;1.55;;
20391;SDS011;10355;53.688;10.078;2023-02-20T15:23:32;8.10;;;1.55;;
20391;SDS011;10355;53.688;10.078;2023-02-20T15:26:26;5.97;;;1.85;;
20391;SDS011;10355;53.688;10.078;2023-02-20T15:29:10;5.57;;;1.77;;
20391;SDS011;10355;53.688;10.078;2023-02-20T15:31:54;5.40;;;1.20;;
20391;SDS011;10355;53.688;10.078;2023-02-20T15:34:37;6.68;;;1.67;;
20391;SDS011;10355;53.688;10.078;2023-02-20T15:37:21;3.30;;;1.42;;
20391;SDS011;10355;53.688;10.078;2023-02-20T15:40:20;6.95;;;1.60;;
20391;SDS011;10355;53.688;10.078;2023-02-20T15:43:07;5.50;;;1.77;;
20391;SDS011;10355;53.688;10.078;2023-02-20T15:46:10;6.35;;;1.50;;
20391;SDS011;10355;53.688;10.078;2023-02-20T15:48:55;5.68;;;1.80;;
20391;SDS011;10355;53.688;10.078;2023-02-20T15:51:38;4.10;;;1.42;;
20391;SDS011;10355;53.688;10.078;2023-02-20T15:54:21;4.55;;;1.65;;
20391;SDS011;10355;53.688;10.078;2023-02-20T15:57:08;4.63;;;1.60;;
20391;SDS011;10355;53.688;10.078;2023-02-20T15:59:52;4.18;;;1.50;;
20391;SDS011;10355;53.688;10.078;2023-02-20T16:02:36;2.70;;;1.05;;
20391;SDS011;10355;53.688;10.078;2023-02-20T16:05:19;2.97;;;1.17;;
20391;SDS011;10355;53.688;10.078;2023-02-20T16:08:02;2.88;;;1.25;;
20391;SDS011;10355;53.688;10.078;2023-02-20T16:10:44;4.03;;;1.30;;
20391;SDS011;10355;53.688;10.078;2023-02-20T16:13:28;3.47;;;1.40;;
20391;SDS011;10355;53.688;10.078;2023-02-20T16:16:14;2.78;;;1.17;;
20391;SDS011;10355;53.688;10.078;2023-02-20T16:19:09;3.45;;;1.50;;
20391;SDS011;10355;53.688;10.078;2023-02-20T16:21:52;2.78;;;1.33;;
20391;SDS011;10355;53.688;10.078;2023-02-20T16:24:40;2.90;;;1.20;;
20391;SDS011;10355;53.688;10.078;2023-02-20T16:27:25;6.00;;;1.38;;
20391;SDS011;10355;53.688;10.078;2023-02-20T16:30:13;4.78;;;1.20;;
20391;SDS011;10355;53.688;10.078;2023-02-20T16:33:14;5.20;;;1.17;;
20391;SDS011;10355;53.688;10.078;2023-02-20T16:35:57;4.32;;;1.20;;
20391;SDS011;10355;53.688;10.078;2023-02-20T16:38:40;3.50;;;1.30;;
20391;SDS011;10355;53.688;10.078;2023-02-20T16:41:22;2.70;;;1.35;;
20391;SDS011;10355;53.688;10.078;2023-02-20T16:44:08;5.53;;;1.20;;